sensor_id;sensor_type;location;lat;lon;timestamp;pressure;altitude;pressure_sealevel;temperature;humidity
38452;BME280;24231;52.514;13.438;2023-06-26T00:01:57;101099.46;;;24.48;51.66
38452;BME280;24231;52.514;13.438;2023-06-26T00:04:24;101099.85;;;23.60;54.81
38452;BME280;24231;52.514;13.438;2023-06-26T00:06:52;101100.81;;;24.01;54.44
38452;BME280;24231;52.514;13.438;2023-06-26T00:09:19;101097.74;;;23.61;57.03
38452;BME280;24231;52.514;13.438;2023-06-26T00:11:46;101097.11;;;23.20;57.85
38452;BME280;24231;52.514;13.438;2023-06-26T00:14:13;101094.62;;;23.79;56.87
38452;BME280;24231;52.514;13.438;2023-06-26T00:16:41;101093.32;;;24.86;52.43
38452;BME280;24231;52.514;13.438;2023-06-26T00:19:08;101093.18;;;23.85;55.93
38452;BME280;24231;52.514;13.438;2023-06-26T00:21:35;101090.20;;;23.12;58.79
38452;BME280;24231;52.514;13.438;2023-06-26T00:24:02;101089.83;;;24.08;56.12
38452;BME280;24231;52.514;13.438;2023-06-26T00:33:06;101085.65;;;24.50;54.20
38452;BME280;24231;52.514;13.438;2023-06-26T00:45:21;101077.84;;;24.90;52.62
38452;BME280;24231;52.514;13.438;2023-06-26T00:47:47;101079.68;;;22.45;57.89
38452;BME280;24231;52.514;13.438;2023-06-26T00:50:15;101078.42;;;24.58;52.66
38452;BME280;24231;52.514;13.438;2023-06-26T00:52:42;101081.31;;;23.71;54.98
38452;BME280;24231;52.514;13.438;2023-06-26T00:55:09;101079.28;;;24.34;54.51
38452;BME280;24231;52.514;13.438;2023-06-26T00:57:42;101076.77;;;24.69;53.31
38452;BME280;24231;52.514;13.438;2023-06-26T01:00:10;101075.67;;;24.14;54.53
38452;BME280;24231;52.514;13.438;2023-06-26T01:02:37;101077.55;;;23.60;56.79
38452;BME280;24231;52.514;13.438;2023-06-26T01:05:05;101073.24;;;22.29;61.59
38452;BME280;24231;52.514;13.438;2023-06-26T01:07:33;101070.88;;;22.71;61.81
38452;BME280;24231;52.514;13.438;2023-06-26T01:10:01;101068.54;;;22.91;60.90
38452;BME280;24231;52.514;13.438;2023-06-26T01:12:28;101067.91;;;23.99;56.75
38452;BME280;24231;52.514;13.438;2023-06-26T01:14:56;101066.08;;;23.53;57.90
38452;BME280;24231;52.514;13.438;2023-06-26T01:17:24;101064.81;;;23.73;56.99
38452;BME280;24231;52.514;13.438;2023-06-26T01:19:51;101061.15;;;24.54;55.31
38452;BME280;24231;52.514;13.438;2023-06-26T01:22:23;101062.94;;;23.53;58.39
38452;BME280;24231;52.514;13.438;2023-06-26T01:25:01;101062.85;;;22.69;62.07
38452;BME280;24231;52.514;13.438;2023-06-26T01:27:30;101062.47;;;23.65;58.39
38452;BME280;24231;52.514;13.438;2023-06-26T01:30:01;101060.29;;;23.62;58.28
38452;BME280;24231;52.514;13.438;2023-06-26T01:32:29;101057.03;;;23.19;58.98
38452;BME280;24231;52.514;13.438;2023-06-26T01:34:57;101052.48;;;24.16;56.36
38452;BME280;24231;52.514;13.438;2023-06-26T01:37:24;101048.11;;;24.65;54.51
38452;BME280;24231;52.514;13.438;2023-06-26T01:39:51;101052.01;;;23.47;58.24
38452;BME280;24231;52.514;13.438;2023-06-26T01:42:18;101048.37;;;23.33;59.09
38452;BME280;24231;52.514;13.438;2023-06-26T01:44:46;101047.10;;;23.73;58.41
38452;BME280;24231;52.514;13.438;2023-06-26T01:47:16;101040.71;;;24.09;57.16
38452;BME280;24231;52.514;13.438;2023-06-26T01:49:49;101042.16;;;25.08;53.55
38452;BME280;24231;52.514;13.438;2023-06-26T01:52:21;101040.87;;;25.92;50.82
38452;BME280;24231;52.514;13.438;2023-06-26T01:54:56;101038.59;;;24.80;53.12
38452;BME280;24231;52.514;13.438;2023-06-26T02:00:09;101037.13;;;25.13;52.96
38452;BME280;24231;52.514;13.438;2023-06-26T02:02:37;101038.23;;;22.25;61.73
38452;BME280;24231;52.514;13.438;2023-06-26T02:05:05;101035.46;;;23.90;57.12
38452;BME280;24231;52.514;13.438;2023-06-26T02:07:32;101035.24;;;23.52;58.29
38452;BME280;24231;52.514;13.438;2023-06-26T02:09:59;101030.34;;;23.89;55.96
38452;BME280;24231;52.514;13.438;2023-06-26T02:12:26;101031.32;;;22.42;61.54
38452;BME280;24231;52.514;13.438;2023-06-26T02:14:53;101031.56;;;23.60;57.81
38452;BME280;24231;52.514;13.438;2023-06-26T02:17:20;101029.09;;;24.53;54.11
38452;BME280;24231;52.514;13.438;2023-06-26T02:19:48;101027.43;;;24.36;54.84
38452;BME280;24231;52.514;13.438;2023-06-26T02:22:15;101029.57;;;22.95;59.13
38452;BME280;24231;52.514;13.438;2023-06-26T02:24:43;101027.96;;;22.55;60.90
38452;BME280;24231;52.514;13.438;2023-06-26T02:27:10;101025.82;;;22.86;59.84
38452;BME280;24231;52.514;13.438;2023-06-26T02:29:39;101030.84;;;22.51;61.35
38452;BME280;24231;52.514;13.438;2023-06-26T02:32:07;101030.24;;;23.37;59.68
38452;BME280;24231;52.514;13.438;2023-06-26T02:34:35;101033.04;;;23.43;58.55
38452;BME280;24231;52.514;13.438;2023-06-26T02:37:02;101030.20;;;24.79;54.26
38452;BME280;24231;52.514;13.438;2023-06-26T02:39:30;101034.08;;;23.67;57.70
38452;BME280;24231;52.514;13.438;2023-06-26T02:41:57;101033.94;;;22.58;61.78
38452;BME280;24231;52.514;13.438;2023-06-26T02:44:24;101032.25;;;23.67;58.23
38452;BME280;24231;52.514;13.438;2023-06-26T02:46:51;101028.07;;;23.75;57.95
38452;BME280;24231;52.514;13.438;2023-06-26T02:49:19;101024.55;;;24.01;56.13
38452;BME280;24231;52.514;13.438;2023-06-26T02:51:46;101027.26;;;23.50;57.70
38452;BME280;24231;52.514;13.438;2023-06-26T02:54:13;101024.50;;;22.62;61.27
38452;BME280;24231;52.514;13.438;2023-06-26T02:56:40;101027.82;;;21.60;65.48
38452;BME280;24231;52.514;13.438;2023-06-26T02:59:07;101028.18;;;21.06;69.33
38452;BME280;24231;52.514;13.438;2023-06-26T03:01:34;101023.23;;;21.32;68.43
38452;BME280;24231;52.514;13.438;2023-06-26T03:04:01;101015.10;;;22.44;63.41
38452;BME280;24231;52.514;13.438;2023-06-26T03:06:28;101011.93;;;23.43;60.09
38452;BME280;24231;52.514;13.438;2023-06-26T03:08:55;101010.41;;;23.76;57.71
38452;BME280;24231;52.514;13.438;2023-06-26T03:11:22;101006.01;;;24.03;57.10
38452;BME280;24231;52.514;13.438;2023-06-26T03:15:21;101006.26;;;23.58;58.62
38452;BME280;24231;52.514;13.438;2023-06-26T03:17:48;101002.13;;;23.43;58.87
38452;BME280;24231;52.514;13.438;2023-06-26T03:20:16;101003.23;;;22.92;59.97
38452;BME280;24231;52.514;13.438;2023-06-26T03:22:43;101000.96;;;23.18;59.49
38452;BME280;24231;52.514;13.438;2023-06-26T03:25:10;101003.48;;;21.90;64.45
38452;BME280;24231;52.514;13.438;2023-06-26T03:39:20;100995.93;;;22.12;63.53
38452;BME280;24231;52.514;13.438;2023-06-26T03:47:29;100987.81;;;21.96;65.13
38452;BME280;24231;52.514;13.438;2023-06-26T03:50:36;100988.66;;;23.56;59.90
38452;BME280;24231;52.514;13.438;2023-06-26T03:53:03;100985.37;;;24.76;54.90
38452;BME280;24231;52.514;13.438;2023-06-26T03:55:30;100986.73;;;22.77;60.72
38452;BME280;24231;52.514;13.438;2023-06-26T03:57:58;100986.46;;;24.64;54.84
38452;BME280;24231;52.514;13.438;2023-06-26T04:00:25;100985.61;;;25.07;53.56
38452;BME280;24231;52.514;13.438;2023-06-26T04:02:52;100986.11;;;25.72;51.09
38452;BME280;24231;52.514;13.438;2023-06-26T04:05:19;100982.80;;;26.02;49.90
38452;BME280;24231;52.514;13.438;2023-06-26T04:07:51;100988.85;;;26.03;49.49
38452;BME280;24231;52.514;13.438;2023-06-26T04:10:19;100985.37;;;26.46;47.89
38452;BME280;24231;52.514;13.438;2023-06-26T04:12:46;100983.59;;;26.82;47.33
38452;BME280;24231;52.514;13.438;2023-06-26T04:15:13;100985.58;;;25.68;50.02
38452;BME280;24231;52.514;13.438;2023-06-26T04:17:41;100981.68;;;26.34;48.09
38452;BME280;24231;52.514;13.438;2023-06-26T04:20:19;100981.70;;;26.36;48.07
38452;BME280;24231;52.514;13.438;2023-06-26T04:22:46;100979.89;;;27.30;44.68
38452;BME280;24231;52.514;13.438;2023-06-26T04:25:59;100980.82;;;29.25;40.36
38452;BME280;24231;52.514;13.438;2023-06-26T04:33:14;100979.96;;;26.74;46.39
38452;BME280;24231;52.514;13.438;2023-06-26T04:36:37;100980.06;;;25.67;49.19
38452;BME280;24231;52.514;13.438;2023-06-26T04:39:04;100982.27;;;25.37;49.50
38452;BME280;24231;52.514;13.438;2023-06-26T04:46:44;100981.50;;;23.22;57.19
38452;BME280;24231;52.514;13.438;2023-06-26T04:49:12;100974.75;;;24.02;54.30
38452;BME280;24231;52.514;13.438;2023-06-26T04:51:39;100974.35;;;23.93;54.47
38452;BME280;24231;52.514;13.438;2023-06-26T04:54:06;100972.43;;;23.97;54.64
38452;BME280;24231;52.514;13.438;2023-06-26T04:56:34;100971.76;;;24.36;53.60
38452;BME280;24231;52.514;13.438;2023-06-26T05:00:02;100974.88;;;24.64;52.33
38452;BME280;24231;52.514;13.438;2023-06-26T05:02:29;100970.90;;;24.11;54.04
38452;BME280;24231;52.514;13.438;2023-06-26T05:04:56;100969.61;;;24.06;54.04
38452;BME280;24231;52.514;13.438;2023-06-26T05:07:23;100972.90;;;23.66;54.63
38452;BME280;24231;52.514;13.438;2023-06-26T05:09:51;100973.61;;;24.69;52.19
38452;BME280;24231;52.514;13.438;2023-06-26T05:12:18;100972.82;;;24.54;51.82
38452;BME280;24231;52.514;13.438;2023-06-26T05:14:45;100969.45;;;25.73;49.16
38452;BME280;24231;52.514;13.438;2023-06-26T05:17:14;100972.01;;;25.02;50.29
38452;BME280;24231;52.514;13.438;2023-06-26T05:19:40;100971.04;;;25.42;49.09
38452;BME280;24231;52.514;13.438;2023-06-26T05:25:49;100964.04;;;24.58;50.13
38452;BME280;24231;52.514;13.438;2023-06-26T05:28:22;100959.23;;;25.59;47.36
38452;BME280;24231;52.514;13.438;2023-06-26T05:30:51;100961.57;;;24.40;50.17
38452;BME280;24231;52.514;13.438;2023-06-26T05:33:19;100959.24;;;24.93;49.18
38452;BME280;24231;52.514;13.438;2023-06-26T05:35:49;100956.53;;;24.93;49.43
38452;BME280;24231;52.514;13.438;2023-06-26T05:38:18;100951.99;;;24.16;51.61
38452;BME280;24231;52.514;13.438;2023-06-26T05:40:46;100946.62;;;24.45;51.22
38452;BME280;24231;52.514;13.438;2023-06-26T05:43:14;100941.42;;;24.48;51.18
38452;BME280;24231;52.514;13.438;2023-06-26T05:45:52;100936.02;;;25.54;48.54
38452;BME280;24231;52.514;13.438;2023-06-26T05:48:20;100934.69;;;24.12;51.50
38452;BME280;24231;52.514;13.438;2023-06-26T05:50:47;100937.13;;;25.14;49.98
38452;BME280;24231;52.514;13.438;2023-06-26T05:53:15;100934.63;;;25.14;49.20
38452;BME280;24231;52.514;13.438;2023-06-26T05:55:43;100933.82;;;25.47;48.92
38452;BME280;24231;52.514;13.438;2023-06-26T05:58:11;100931.23;;;27.18;44.37
38452;BME280;24231;52.514;13.438;2023-06-26T06:00:39;100933.20;;;26.73;44.91
38452;BME280;24231;52.514;13.438;2023-06-26T06:03:06;100931.68;;;26.89;44.14
38452;BME280;24231;52.514;13.438;2023-06-26T06:05:33;100928.17;;;27.25;43.10
38452;BME280;24231;52.514;13.438;2023-06-26T06:08:01;100918.87;;;27.85;41.53
38452;BME280;24231;52.514;13.438;2023-06-26T06:10:29;100921.43;;;27.89;41.36
38452;BME280;24231;52.514;13.438;2023-06-26T06:12:56;100917.89;;;28.02;41.37
38452;BME280;24231;52.514;13.438;2023-06-26T06:15:23;100917.10;;;27.95;41.26
38452;BME280;24231;52.514;13.438;2023-06-26T06:17:50;100919.20;;;28.51;40.58
38452;BME280;24231;52.514;13.438;2023-06-26T06:20:17;100913.19;;;30.06;36.37
38452;BME280;24231;52.514;13.438;2023-06-26T06:22:44;100914.02;;;31.32;34.92
38452;BME280;24231;52.514;13.438;2023-06-26T06:25:11;100913.13;;;29.68;37.47
38452;BME280;24231;52.514;13.438;2023-06-26T06:27:39;100912.11;;;29.75;37.60
38452;BME280;24231;52.514;13.438;2023-06-26T06:30:07;100913.57;;;28.40;39.37
38452;BME280;24231;52.514;13.438;2023-06-26T06:32:35;100910.70;;;30.41;36.17
38452;BME280;24231;52.514;13.438;2023-06-26T06:35:02;100912.05;;;30.60;35.51
38452;BME280;24231;52.514;13.438;2023-06-26T06:37:29;100911.64;;;31.62;33.63
38452;BME280;24231;52.514;13.438;2023-06-26T06:39:56;100912.31;;;30.28;35.27
38452;BME280;24231;52.514;13.438;2023-06-26T06:42:24;100904.79;;;32.33;31.99
38452;BME280;24231;52.514;13.438;2023-06-26T06:44:50;100903.21;;;32.35;31.61
38452;BME280;24231;52.514;13.438;2023-06-26T06:47:18;100905.22;;;33.27;30.33
38452;BME280;24231;52.514;13.438;2023-06-26T06:49:45;100904.08;;;31.16;33.19
38452;BME280;24231;52.514;13.438;2023-06-26T06:52:12;100904.84;;;31.60;32.23
38452;BME280;24231;52.514;13.438;2023-06-26T06:54:51;100900.22;;;31.88;31.94
38452;BME280;24231;52.514;13.438;2023-06-26T06:57:19;100897.40;;;31.91;31.94
38452;BME280;24231;52.514;13.438;2023-06-26T06:59:47;100900.86;;;33.22;29.09
38452;BME280;24231;52.514;13.438;2023-06-26T07:02:15;100897.00;;;33.23;29.56
38452;BME280;24231;52.514;13.438;2023-06-26T07:04:43;100895.47;;;32.09;31.75
38452;BME280;24231;52.514;13.438;2023-06-26T07:07:11;100894.00;;;33.37;28.89
38452;BME280;24231;52.514;13.438;2023-06-26T07:09:38;100887.73;;;33.96;29.04
38452;BME280;24231;52.514;13.438;2023-06-26T07:12:06;100890.80;;;31.42;32.07
38452;BME280;24231;52.514;13.438;2023-06-26T07:14:34;100890.28;;;31.35;32.05
38452;BME280;24231;52.514;13.438;2023-06-26T07:17:01;100886.54;;;32.53;30.01
38452;BME280;24231;52.514;13.438;2023-06-26T07:19:29;100885.48;;;32.51;30.07
38452;BME280;24231;52.514;13.438;2023-06-26T07:34:39;100883.13;;;32.84;29.81
38452;BME280;24231;52.514;13.438;2023-06-26T07:37:05;100876.10;;;32.91;29.28
38452;BME280;24231;52.514;13.438;2023-06-26T07:39:33;100874.65;;;32.58;30.05
38452;BME280;24231;52.514;13.438;2023-06-26T07:42:00;100871.28;;;31.64;31.29
38452;BME280;24231;52.514;13.438;2023-06-26T07:44:27;100869.60;;;31.69;31.36
38452;BME280;24231;52.514;13.438;2023-06-26T07:46:56;100870.65;;;31.67;31.10
38452;BME280;24231;52.514;13.438;2023-06-26T07:49:23;100868.12;;;31.96;30.58
38452;BME280;24231;52.514;13.438;2023-06-26T07:51:50;100867.18;;;33.26;29.36
38452;BME280;24231;52.514;13.438;2023-06-26T07:54:18;100860.42;;;31.93;30.28
38452;BME280;24231;52.514;13.438;2023-06-26T07:56:54;100858.82;;;30.91;31.25
38452;BME280;24231;52.514;13.438;2023-06-26T07:59:23;100857.46;;;32.44;29.88
38452;BME280;24231;52.514;13.438;2023-06-26T08:01:51;100853.80;;;31.76;30.68
38452;BME280;24231;52.514;13.438;2023-06-26T08:04:19;100851.28;;;33.96;28.32
38452;BME280;24231;52.514;13.438;2023-06-26T08:06:48;100851.18;;;34.32;27.54
38452;BME280;24231;52.514;13.438;2023-06-26T08:09:16;100851.24;;;33.28;28.69
38452;BME280;24231;52.514;13.438;2023-06-26T08:11:43;100850.86;;;31.30;30.90
38452;BME280;24231;52.514;13.438;2023-06-26T08:14:11;100850.00;;;32.91;28.73
38452;BME280;24231;52.514;13.438;2023-06-26T08:16:48;100848.29;;;32.98;28.92
38452;BME280;24231;52.514;13.438;2023-06-26T08:19:16;100844.53;;;32.68;28.54
38452;BME280;24231;52.514;13.438;2023-06-26T08:21:44;100837.89;;;33.79;27.79
38452;BME280;24231;52.514;13.438;2023-06-26T08:24:13;100838.12;;;32.53;28.65
38452;BME280;24231;52.514;13.438;2023-06-26T08:26:40;100842.04;;;32.04;29.64
38452;BME280;24231;52.514;13.438;2023-06-26T08:29:08;100838.89;;;31.68;29.54
38452;BME280;24231;52.514;13.438;2023-06-26T08:31:35;100842.98;;;32.15;29.30
38452;BME280;24231;52.514;13.438;2023-06-26T08:34:03;100840.84;;;32.07;29.27
38452;BME280;24231;52.514;13.438;2023-06-26T08:36:30;100833.29;;;32.27;28.80
38452;BME280;24231;52.514;13.438;2023-06-26T08:38:58;100833.15;;;32.58;27.87
38452;BME280;24231;52.514;13.438;2023-06-26T08:41:25;100833.26;;;32.64;28.00
38452;BME280;24231;52.514;13.438;2023-06-26T08:43:52;100823.01;;;33.97;26.49
38452;BME280;24231;52.514;13.438;2023-06-26T08:46:20;100824.50;;;32.56;28.07
38452;BME280;24231;52.514;13.438;2023-06-26T08:48:52;100828.61;;;32.54;27.95
38452;BME280;24231;52.514;13.438;2023-06-26T08:51:24;100817.07;;;33.80;26.35
38452;BME280;24231;52.514;13.438;2023-06-26T08:53:56;100826.67;;;32.88;27.91
38452;BME280;24231;52.514;13.438;2023-06-26T08:56:27;100822.64;;;32.52;27.55
38452;BME280;24231;52.514;13.438;2023-06-26T08:58:55;100815.71;;;32.15;27.77
38452;BME280;24231;52.514;13.438;2023-06-26T09:01:22;100815.21;;;33.48;26.55
38452;BME280;24231;52.514;13.438;2023-06-26T09:03:51;100810.97;;;34.07;25.72
38452;BME280;24231;52.514;13.438;2023-06-26T09:06:18;100809.79;;;34.43;25.31
38452;BME280;24231;52.514;13.438;2023-06-26T09:08:46;100804.79;;;33.62;25.80
38452;BME280;24231;52.514;13.438;2023-06-26T09:11:14;100794.29;;;33.64;25.06
38452;BME280;24231;52.514;13.438;2023-06-26T09:13:41;100795.53;;;34.01;24.54
38452;BME280;24231;52.514;13.438;2023-06-26T09:16:10;100788.82;;;33.26;26.28
38452;BME280;24231;52.514;13.438;2023-06-26T09:18:37;100792.50;;;32.44;26.79
38452;BME280;24231;52.514;13.438;2023-06-26T09:21:07;100790.79;;;32.36;26.59
38452;BME280;24231;52.514;13.438;2023-06-26T09:23:34;100793.15;;;32.28;26.80
38452;BME280;24231;52.514;13.438;2023-06-26T09:26:02;100789.23;;;32.06;27.09
38452;BME280;24231;52.514;13.438;2023-06-26T09:28:30;100793.96;;;31.93;27.11
38452;BME280;24231;52.514;13.438;2023-06-26T09:31:01;100785.60;;;33.05;25.90
38452;BME280;24231;52.514;13.438;2023-06-26T09:33:33;100785.69;;;32.42;26.59
38452;BME280;24231;52.514;13.438;2023-06-26T09:36:01;100780.00;;;32.91;25.68
38452;BME280;24231;52.514;13.438;2023-06-26T09:38:29;100775.82;;;33.36;25.54
38452;BME280;24231;52.514;13.438;2023-06-26T09:40:56;100784.31;;;32.30;26.83
38452;BME280;24231;52.514;13.438;2023-06-26T09:43:23;100778.49;;;32.49;26.55
38452;BME280;24231;52.514;13.438;2023-06-26T09:45:52;100773.61;;;33.30;25.17
38452;BME280;24231;52.514;13.438;2023-06-26T09:48:19;100774.23;;;33.79;25.17
38452;BME280;24231;52.514;13.438;2023-06-26T09:50:46;100767.61;;;33.37;25.66
38452;BME280;24231;52.514;13.438;2023-06-26T09:53:15;100765.74;;;33.76;25.00
38452;BME280;24231;52.514;13.438;2023-06-26T09:55:42;100760.73;;;34.61;25.07
38452;BME280;24231;52.514;13.438;2023-06-26T09:58:11;100760.43;;;34.27;24.43
38452;BME280;24231;52.514;13.438;2023-06-26T10:00:38;100761.35;;;35.21;23.29
38452;BME280;24231;52.514;13.438;2023-06-26T10:03:05;100757.01;;;33.39;24.67
38452;BME280;24231;52.514;13.438;2023-06-26T10:05:33;100755.95;;;32.83;26.17
38452;BME280;24231;52.514;13.438;2023-06-26T10:08:01;100751.36;;;33.53;25.63
38452;BME280;24231;52.514;13.438;2023-06-26T10:10:30;100747.46;;;34.65;24.97
38452;BME280;24231;52.514;13.438;2023-06-26T10:13:00;100740.15;;;34.44;24.51
38452;BME280;24231;52.514;13.438;2023-06-26T10:15:31;100746.83;;;33.75;25.50
38452;BME280;24231;52.514;13.438;2023-06-26T10:17:58;100746.69;;;32.80;26.60
38452;BME280;24231;52.514;13.438;2023-06-26T10:20:26;100740.73;;;31.96;27.85
38452;BME280;24231;52.514;13.438;2023-06-26T10:22:57;100740.04;;;31.87;27.53
38452;BME280;24231;52.514;13.438;2023-06-26T10:25:28;100736.68;;;31.84;27.71
38452;BME280;24231;52.514;13.438;2023-06-26T10:27:58;100728.13;;;31.82;28.02
38452;BME280;24231;52.514;13.438;2023-06-26T10:30:31;100720.62;;;32.48;26.88
38452;BME280;24231;52.514;13.438;2023-06-26T10:32:59;100717.64;;;31.99;28.16
38452;BME280;24231;52.514;13.438;2023-06-26T10:35:28;100716.66;;;32.41;27.82
38452;BME280;24231;52.514;13.438;2023-06-26T10:38:01;100709.69;;;33.70;26.11
38452;BME280;24231;52.514;13.438;2023-06-26T10:40:39;100714.30;;;32.39;27.20
38452;BME280;24231;52.514;13.438;2023-06-26T10:43:08;100709.01;;;31.90;27.24
38452;BME280;24231;52.514;13.438;2023-06-26T10:45:36;100714.65;;;31.70;27.80
38452;BME280;24231;52.514;13.438;2023-06-26T10:48:04;100710.05;;;31.37;27.70
38452;BME280;24231;52.514;13.438;2023-06-26T10:50:32;100701.92;;;31.87;27.44
38452;BME280;24231;52.514;13.438;2023-06-26T10:53:21;100694.66;;;33.53;26.17
38452;BME280;24231;52.514;13.438;2023-06-26T10:55:51;100690.32;;;32.50;26.93
38452;BME280;24231;52.514;13.438;2023-06-26T10:58:30;100688.05;;;32.74;26.05
38452;BME280;24231;52.514;13.438;2023-06-26T11:01:29;100693.30;;;32.19;27.12
38452;BME280;24231;52.514;13.438;2023-06-26T11:04:05;100699.95;;;31.83;28.22
38452;BME280;24231;52.514;13.438;2023-06-26T11:06:34;100691.46;;;31.56;27.90
38452;BME280;24231;52.514;13.438;2023-06-26T11:09:07;100688.70;;;32.13;27.89
38452;BME280;24231;52.514;13.438;2023-06-26T11:12:08;100680.92;;;32.48;28.03
38452;BME280;24231;52.514;13.438;2023-06-26T11:14:35;100684.19;;;30.34;29.48
38452;BME280;24231;52.514;13.438;2023-06-26T11:17:04;100680.58;;;30.39;29.87
38452;BME280;24231;52.514;13.438;2023-06-26T11:19:31;100680.26;;;31.84;28.16
38452;BME280;24231;52.514;13.438;2023-06-26T11:22:01;100673.98;;;32.21;28.41
38452;BME280;24231;52.514;13.438;2023-06-26T11:24:29;100666.92;;;33.62;27.72
38452;BME280;24231;52.514;13.438;2023-06-26T11:27:01;100665.10;;;32.90;27.94
38452;BME280;24231;52.514;13.438;2023-06-26T11:29:30;100666.94;;;31.23;28.92
38452;BME280;24231;52.514;13.438;2023-06-26T11:31:59;100667.93;;;31.54;29.32
38452;BME280;24231;52.514;13.438;2023-06-26T11:34:30;100661.10;;;31.34;29.37
38452;BME280;24231;52.514;13.438;2023-06-26T11:36:57;100660.54;;;31.23;29.03
38452;BME280;24231;52.514;13.438;2023-06-26T11:39:24;100654.25;;;31.56;28.67
38452;BME280;24231;52.514;13.438;2023-06-26T11:41:52;100652.83;;;31.59;28.75
38452;BME280;24231;52.514;13.438;2023-06-26T11:44:19;100639.84;;;32.12;28.22
38452;BME280;24231;52.514;13.438;2023-06-26T11:46:51;100637.50;;;31.33;28.78
38452;BME280;24231;52.514;13.438;2023-06-26T11:49:20;100636.56;;;31.23;29.47
38452;BME280;24231;52.514;13.438;2023-06-26T11:51:47;100629.89;;;31.09;28.76
38452;BME280;24231;52.514;13.438;2023-06-26T11:54:14;100627.34;;;31.47;28.86
38452;BME280;24231;52.514;13.438;2023-06-26T11:56:42;100619.99;;;31.59;28.79
38452;BME280;24231;52.514;13.438;2023-06-26T11:59:11;100610.34;;;32.23;27.72
38452;BME280;24231;52.514;13.438;2023-06-26T12:01:39;100608.28;;;32.50;27.83
38452;BME280;24231;52.514;13.438;2023-06-26T12:04:08;100606.15;;;33.04;27.32
38452;BME280;24231;52.514;13.438;2023-06-26T12:06:37;100598.28;;;33.34;26.41
38452;BME280;24231;52.514;13.438;2023-06-26T12:09:07;100603.33;;;31.57;28.65
38452;BME280;24231;52.514;13.438;2023-06-26T12:11:36;100597.13;;;30.81;29.50
38452;BME280;24231;52.514;13.438;2023-06-26T12:14:05;100590.59;;;30.99;29.37
38452;BME280;24231;52.514;13.438;2023-06-26T12:16:33;100588.95;;;30.69;29.95
38452;BME280;24231;52.514;13.438;2023-06-26T12:19:02;100579.68;;;30.96;29.49
38452;BME280;24231;52.514;13.438;2023-06-26T12:21:46;100580.60;;;31.25;29.33
38452;BME280;24231;52.514;13.438;2023-06-26T12:24:15;100580.46;;;31.73;28.94
38452;BME280;24231;52.514;13.438;2023-06-26T12:26:43;100571.34;;;31.83;27.68
38452;BME280;24231;52.514;13.438;2023-06-26T12:29:12;100569.30;;;33.73;26.06
38452;BME280;24231;52.514;13.438;2023-06-26T12:31:41;100568.47;;;32.12;28.69
38452;BME280;24231;52.514;13.438;2023-06-26T12:34:10;100565.98;;;33.27;26.84
38452;BME280;24231;52.514;13.438;2023-06-26T12:36:40;100563.04;;;33.55;26.58
38452;BME280;24231;52.514;13.438;2023-06-26T12:39:09;100567.69;;;31.62;28.92
38452;BME280;24231;52.514;13.438;2023-06-26T13:19:08;100500.13;;;31.62;28.37
38452;BME280;24231;52.514;13.438;2023-06-26T13:21:34;100498.57;;;30.21;29.47
38452;BME280;24231;52.514;13.438;2023-06-26T13:24:01;100487.14;;;31.75;27.22
38452;BME280;24231;52.514;13.438;2023-06-26T13:26:29;100479.73;;;31.61;27.99
38452;BME280;24231;52.514;13.438;2023-06-26T13:28:56;100476.62;;;31.93;27.70
38452;BME280;24231;52.514;13.438;2023-06-26T13:31:24;100471.73;;;31.81;27.93
38452;BME280;24231;52.514;13.438;2023-06-26T13:33:50;100473.11;;;31.60;28.59
38452;BME280;24231;52.514;13.438;2023-06-26T13:36:18;100463.02;;;31.19;29.25
38452;BME280;24231;52.514;13.438;2023-06-26T13:38:46;100454.82;;;30.96;29.73
38452;BME280;24231;52.514;13.438;2023-06-26T13:41:13;100451.27;;;30.44;30.15
38452;BME280;24231;52.514;13.438;2023-06-26T13:43:40;100435.58;;;31.09;29.29
38452;BME280;24231;52.514;13.438;2023-06-26T13:46:08;100432.61;;;30.71;30.49
38452;BME280;24231;52.514;13.438;2023-06-26T13:48:36;100430.61;;;30.04;31.17
38452;BME280;24231;52.514;13.438;2023-06-26T13:51:03;100426.29;;;30.10;31.45
38452;BME280;24231;52.514;13.438;2023-06-26T13:53:32;100423.23;;;29.92;31.46
38452;BME280;24231;52.514;13.438;2023-06-26T13:55:59;100417.54;;;30.48;30.89
38452;BME280;24231;52.514;13.438;2023-06-26T13:58:27;100401.96;;;30.18;31.27
38452;BME280;24231;52.514;13.438;2023-06-26T14:00:54;100384.77;;;30.30;30.70
38452;BME280;24231;52.514;13.438;2023-06-26T14:03:21;100386.80;;;30.90;29.92
38452;BME280;24231;52.514;13.438;2023-06-26T14:05:49;100386.89;;;30.01;31.02
38452;BME280;24231;52.514;13.438;2023-06-26T14:08:16;100384.22;;;29.98;31.11
38452;BME280;24231;52.514;13.438;2023-06-26T14:10:43;100377.34;;;29.95;31.19
38452;BME280;24231;52.514;13.438;2023-06-26T14:13:10;100376.91;;;30.22;30.78
38452;BME280;24231;52.514;13.438;2023-06-26T14:15:38;100375.60;;;30.79;30.05
38452;BME280;24231;52.514;13.438;2023-06-26T14:18:06;100387.47;;;30.19;30.82
38452;BME280;24231;52.514;13.438;2023-06-26T14:20:33;100402.82;;;31.33;29.28
38452;BME280;24231;52.514;13.438;2023-06-26T14:23:00;100438.79;;;30.47;31.89
38452;BME280;24231;52.514;13.438;2023-06-26T14:25:27;100480.38;;;29.81;34.25
38452;BME280;24231;52.514;13.438;2023-06-26T14:27:55;100534.32;;;28.59;40.57
38452;BME280;24231;52.514;13.438;2023-06-26T14:30:23;100623.04;;;25.73;57.44
38452;BME280;24231;52.514;13.438;2023-06-26T14:32:50;100652.14;;;23.98;68.89